Nearby METAR Reports

 

KSJC - San Jose, California, USA
Distance from station: NE 9mi, 14km
Updated: Sun, 20-Jan-2019 11:53pm PST
Partly cloudy
Partly cloudy
 Wind from W
Wind: W 6 mph , 9 km/h
Temperature: 46°F , 8°C
Wind Chill: 43°F , 6°C
Dew Point: 43°F , 6°C
Humidity: 87%
Barometer: 30.08 inHg , 1018.6 hPa
Clouds: Partly cloudy
Visibility: 10 miles , 16 km
Cloud details: Few Clouds 1200 ft
Partly cloudy 6000 ft
2019/01/21 07:53 KSJC 210753Z 26005KT 10SM FEW012 SCT060 08/06 A3008 RMK AO2 SLP185 LAST T00830056 401830083 $
KNUQ - Moffett Nas/Mtn, California, USA
Distance from station: N 9mi, 14km
Updated: Sun, 20-Jan-2019 11:56pm PST
Clear
Clear
 Wind from W
Wind: W 6 mph , 9 km/h
Temperature: 48°F , 9°C
Wind Chill: 45°F , 7°C
Dew Point: 43°F , 6°C
Humidity: 82%
Barometer: 30.09 inHg , 1019 hPa
Clouds: Clear
Visibility: 10 miles , 16 km
2019/01/21 07:56 KNUQ 210756Z AUTO 26005KT 10SM CLR 09/06 A3009 RMK AO2 SLP190 T00940056 401780083
 
KPAO - Palo Alto, California, USA
Distance from station: NNW 14mi, 23km
Updated: Sun, 20-Jan-2019 8:47pm PST
NOT Current
Nearby showers, Mostly cloudy
Nearby showers, Mostly cloudy
 Wind from varies
Wind: varies 6 mph , 9 km/h
Temperature: 50°F , 10°C
Wind Chill: 48°F , 9°C
Dew Point: 45°F , 7°C
Humidity: 82%
Barometer: 30.04 inHg , 1017.3 hPa
Summary: Nearby Showers
Clouds: Mostly cloudy
Visibility: 10 miles , 16 km
Cloud details: Mostly cloudy 5000 ft
2019/01/21 04:47 KPAO 210447Z VRB05KT 10SM VCSH BKN050 10/07 A3004 RMK LAST
KRHV - San Jose/Reid, California, USA
Distance from station: ENE 12mi, 19km
Updated: Sun, 20-Jan-2019 9:50pm PST
NOT Current
Overcast
Overcast
 Wind from NW
Wind: NW 14 mph , 22 km/h
Temperature: 48°F , 9°C
Wind Chill: 42°F , 6°C
Dew Point: 45°F , 7°C
Humidity: 87%
Barometer: 30.05 inHg , 1017.6 hPa
Clouds: Overcast
Visibility: 10 miles , 16 km
Cloud details: Partly cloudy 2500 ft
Overcast 4000 ft
2019/01/21 05:50 KRHV 210550Z 32012KT 10SM SCT025 OVC040 09/07 A3005 RMK LAST
 
KOAK - Oakland, California, USA
Distance from station: NNW 31mi, 50km
Updated: Sun, 20-Jan-2019 11:53pm PST
Mostly cloudy
Mostly cloudy
 Wind from WNW
Wind: WNW 20 mph , 31 km/h, Gust: 24 mph , 39 km/h
Temperature: 52°F , 11°C
Dew Point: 43°F , 6°C
Humidity: 72%
Barometer: 30.07 inHg , 1018.3 hPa
Clouds: Mostly cloudy
Visibility: 10 miles , 16 km
Cloud details: Few Clouds 1800 ft
Few Clouds 3000 ft
Mostly cloudy 4800 ft
2019/01/21 07:53 KOAK 210753Z 29017G21KT 10SM FEW018 FEW030 BKN048 11/06 A3007 RMK AO2 RAB02E24 SLP183 P0000 T01110056 401500100
KSQL - San Carlos Airpo, California, USA
Distance from station: NW 21mi, 34km
Updated: Mon, 21-Jan-2019 12:35am PST
Light rain, Mostly cloudy
Light rain, Mostly cloudy
 Wind from W
Wind: W 13 mph , 20 km/h, Gust: 21 mph , 33 km/h
Temperature: 48°F , 9°C
Wind Chill: 43°F , 6°C
Dew Point: 43°F , 6°C
Humidity: 82%
Barometer: 30.09 inHg , 1019 hPa
Summary: Light rain
Clouds: Mostly cloudy
Visibility: 7 miles , 11 km
Cloud details: Partly cloudy 3100 ft
Partly cloudy 4800 ft
Mostly cloudy 8000 ft
2019/01/21 08:35 KSQL 210835Z AUTO 28011G18KT 7SM -RA SCT031 SCT048 BKN080 09/06 A3009 RMK AO2
 
KSFO - San Francisco, California, USA
Distance from station: NW 30mi, 49km
Updated: Sun, 20-Jan-2019 11:56pm PST
Light rain, Partly cloudy
Light rain, Partly cloudy
 Wind from W
Wind: W 21 mph , 33 km/h
Temperature: 54°F , 12°C
Dew Point: 45°F , 7°C
Humidity: 72%
Barometer: 30.06 inHg , 1017.9 hPa
Summary: Light rain
Clouds: Partly cloudy
Visibility: 10 miles , 16 km
Cloud details: Few Clouds 3700 ft
Partly cloudy 5000 ft
2019/01/21 07:56 KSFO 210756Z 28018KT 10SM -RA FEW037 SCT050 12/07 A3006 RMK AO2 PK WND 27028/0742 RAB50 SLP177 P0000 T01220067 401440117 $
KE16 - San Martin, California, USA
Distance from station: ESE 27mi, 43km
Updated: Mon, 21-Jan-2019 12:30am PST
Mostly cloudy
Mostly cloudy
 Wind from calm
Wind: Calm
Temperature: 45°F , 7°C
Dew Point: 41°F , 5°C
Humidity: 87%
Barometer: 30.10 inHg , 1019.3 hPa
Clouds: Mostly cloudy
Visibility: 10 miles , 16 km
Cloud details: Few Clouds 3000 ft
Mostly cloudy 3800 ft
Mostly cloudy 5000 ft
2019/01/21 08:30 KE16 210830Z AUTO 00000KT 10SM FEW030 BKN038 BKN050 07/05 A3010 RMK AO2
 
KWVI - Watsonville, California, USA
Distance from station: SSE 27mi, 44km
Updated: Sun, 20-Jan-2019 11:53pm PST
Light rain, Mostly cloudy
Light rain, Mostly cloudy
 Wind from NE
Wind: NE 3 mph , 6 km/h
Temperature: 46°F , 8°C
Dew Point: 45°F , 7°C
Humidity: 93%
Barometer: 30.10 inHg , 1019.3 hPa
Summary: Light rain
Clouds: Mostly cloudy
Visibility: 10 miles , 16 km
Cloud details: Partly cloudy 4100 ft
Mostly cloudy 5500 ft
2019/01/21 07:53 KWVI 210753Z AUTO 05003KT 10SM -RA SCT041 BKN055 08/07 A3010 RMK AO2 RAB46 SLP191 P0000 T00780067 401440067
KHAF - Half Moon Bay, California, USA
Distance from station: WNW 31mi, 50km
Updated: Mon, 21-Jan-2019 12:35am PST
Overcast
Overcast
 Wind from NW
Wind: NW 10 mph , 17 km/h, Gust: 17 mph , 28 km/h
Temperature: 50°F , 10°C
Wind Chill: 46°F , 8°C
Dew Point: 45°F , 7°C
Humidity: 82%
Barometer: 30.09 inHg , 1019 hPa
Clouds: Overcast
Visibility: 7 miles , 11 km
Cloud details: Few Clouds 2400 ft
Mostly cloudy 3100 ft
Overcast 4600 ft
2019/01/21 08:35 KHAF 210835Z AUTO 32009G15KT 7SM FEW024 BKN031 OVC046 10/07 A3009 RMK AO2
 
KHWD - Hayward, California, USA
Distance from station: N 28mi, 44km
Updated: Sun, 20-Jan-2019 11:54pm PST
Mostly cloudy
Mostly cloudy
 Wind from WNW
Wind: WNW 10 mph , 17 km/h
Temperature: 52°F , 11°C
Dew Point: 43°F , 6°C
Humidity: 72%
Barometer: 30.06 inHg , 1017.9 hPa
Clouds: Mostly cloudy
Visibility: 10 miles , 16 km
Cloud details: Partly cloudy 3300 ft
Mostly cloudy 6000 ft
2019/01/21 07:54 KHWD 210754Z AUTO 30009KT 10SM SCT033 BKN060 11/06 A3006 RMK AO2 RAB0655E29 SLP190 P0001 T01060056 401610100
KLVK - Livermore, California, USA
Distance from station: NNE 31mi, 51km
Updated: Sun, 20-Jan-2019 11:53pm PST
Mostly cloudy
Mostly cloudy
 Wind from calm
Wind: Calm
Temperature: 45°F , 7°C
Dew Point: 43°F , 6°C
Humidity: 93%
Barometer: 30.06 inHg , 1017.9 hPa
Clouds: Mostly cloudy
Visibility: 10 miles , 16 km
Cloud details: Few Clouds 3200 ft
Mostly cloudy 4800 ft
2019/01/21 07:53 KLVK 210753Z AUTO 00000KT 10SM FEW032 BKN048 07/06 A3006 RMK AO2 SLP178 T00720061 401670067 $